Terminal Aerodrome Forecast
Issued by NWS Charleston, WV

Current Version | Previous Version | Text Only | Print | Product List | Glossary Off
Versions: 1 2 3 4 5 6 7 8 9 10 11 12 13 14 15 16 17 18 19 20 21 22 23 24 25 26 27

000
FTUS41 KRLX 220200 AAA
TAFPKB
TAF AMD
KPKB 220232Z 2203/2224 00000KT 5SM BR BKN035
     FM220700 22004KT 4SM SHRA BKN030
     FM220800 VRB03KT 3SM BR BKN020
     FM221000 VRB03KT 2SM BR BKN030
     FM221400 VRB03KT 4SM SHRA BR VCTS BKN080CB
     FM221800 23005KT 5SM SHRA BR VCTS BKN025CB
     FM222300 VRB03KT 6SM BR BKN025=

USA.gov is the U.S. government's official web portal to all federal, state and local government web resources and services.